Time;durP1;ratioP1;P1;durP2;ratioP2;P2;SDS_P1;SDS_P2;PMS_P1;PMS_P2;Temp;Humidity;BMP_temperature;BMP_pressure;BME280_temperature;BME280_humidity;BME280_pressure;Samples;Min_cycle;Max_cycle;Signal;HPM_P1;HPM_P2
2022/10/28 00:00:05;;;;;;;14.10;7.15;;;15.10;99.90;;;;;;5060067;28;20032;-94
2022/10/28 00:02:32;;;;;;;17.80;6.70;;;15.10;99.90;;;;;;5043616;28;20086;-94
2022/10/28 00:04:57;;;;;;;12.40;6.40;;;15.20;99.90;;;;;;5043253;28;20040;-95
2022/10/28 00:07:23;;;;;;;15.30;6.75;;;15.20;99.90;;;;;;5022405;28;20111;-94
2022/10/28 00:09:49;;;;;;;12.75;6.85;;;15.20;99.90;;;;;;5052399;28;20084;-95
2022/10/28 00:12:15;;;;;;;12.60;6.40;;;15.20;99.90;;;;;;5055778;28;20041;-95
2022/10/28 00:14:40;;;;;;;10.93;6.28;;;15.20;99.90;;;;;;5055809;28;20037;-94
2022/10/28 00:17:06;;;;;;;15.02;6.97;;;15.20;99.90;;;;;;5058794;28;20044;-95
2022/10/28 00:19:32;;;;;;;13.45;6.65;;;15.20;99.90;;;;;;5058315;28;20098;-94
2022/10/28 00:21:57;;;;;;;13.38;7.07;;;15.20;99.90;;;;;;5041287;28;20041;-95
2022/10/28 00:24:23;;;;;;;12.27;6.60;;;15.30;99.90;;;;;;5022058;28;20063;-94
2022/10/28 00:26:49;;;;;;;16.13;7.65;;;15.30;99.90;;;;;;5047222;28;20048;-94
2022/10/28 00:29:17;;;;;;;12.35;6.40;;;15.30;99.90;;;;;;5059034;28;20039;-94
2022/10/28 00:31:44;;;;;;;15.80;7.22;;;15.30;99.90;;;;;;5059192;28;20059;-96
2022/10/28 00:34:15;;;;;;;12.38;6.65;;;15.30;99.90;;;;;;5041885;28;20075;-96
2022/10/28 00:36:43;;;;;;;12.77;6.82;;;15.30;99.90;;;;;;5058045;28;20386;-96
2022/10/28 00:39:14;;;;;;;13.73;6.95;;;15.30;99.90;;;;;;5074221;28;20092;-94
2022/10/28 00:41:43;;;;;;;12.05;6.50;;;15.30;99.90;;;;;;5074125;28;20090;-93
2022/10/28 00:44:46;;;;;;;14.95;6.78;;;14.80;99.90;;;;;;5056967;28;20093;-95
2022/10/28 00:47:15;;;;;;;12.98;6.60;;;15.30;99.90;;;;;;5058208;28;20052;-95
2022/10/28 00:49:41;;;;;;;13.32;6.03;;;15.30;99.90;;;;;;5074831;28;20044;-95
2022/10/28 00:52:09;;;;;;;;;;;15.40;99.90;;;;;;5058502;28;20116;-94
2022/10/28 00:54:36;;;;;;;11.73;6.88;;;15.40;99.90;;;;;;5057674;28;19951;-94
2022/10/28 00:57:04;;;;;;;13.43;6.53;;;15.40;99.90;;;;;;5073755;28;20100;-94
2022/10/28 00:59:36;;;;;;;15.30;6.95;;;15.40;99.90;;;;;;5057734;28;20040;-93
2022/10/28 01:02:04;;;;;;;12.35;6.68;;;15.40;99.90;;;;;;5057900;28;20041;-95
2022/10/28 01:04:30;;;;;;;13.65;7.03;;;15.40;99.90;;;;;;5057918;28;20051;-94
2022/10/28 01:06:57;;;;;;;14.25;7.35;;;15.40;99.90;;;;;;5041313;28;20485;-94
2022/10/28 01:09:23;;;;;;;11.57;6.65;;;15.40;99.90;;;;;;5058088;28;20040;-94
2022/10/28 01:11:51;;;;;;;14.82;7.35;;;15.40;99.90;;;;;;5042594;28;20085;-95
2022/10/28 01:14:29;;;;;;;14.30;6.55;;;15.40;99.90;;;;;;5058791;28;20040;-95
2022/10/28 01:17:23;;;;;;;18.42;7.05;;;15.40;99.90;;;;;;5058805;28;20041;-95
2022/10/28 01:20:10;;;;;;;15.18;6.97;;;15.30;99.90;;;;;;5058698;28;20037;-94
2022/10/28 01:23:11;;;;;;;19.65;6.57;;;15.30;99.90;;;;;;5058295;28;20071;-95
2022/10/28 01:25:51;;;;;;;12.48;6.20;;;15.30;99.90;;;;;;5052035;28;20045;-94
2022/10/28 01:28:55;;;;;;;11.90;6.97;;;15.20;99.90;;;;;;5057425;28;20516;-95
2022/10/28 01:31:44;;;;;;;13.45;6.72;;;15.20;99.90;;;;;;5057188;28;20484;-94
2022/10/28 01:35:03;;;;;;;13.65;6.60;;;15.10;99.90;;;;;;5057523;28;20064;-94
2022/10/28 01:37:39;;;;;;;13.55;6.57;;;15.10;99.90;;;;;;5033884;28;20053;-93
2022/10/28 01:40:28;;;;;;;12.15;6.55;;;15.10;99.90;;;;;;5067354;28;20039;-94
2022/10/28 01:43:03;;;;;;;15.02;6.80;;;15.00;99.90;;;;;;5057268;28;20032;-95
2022/10/28 01:45:52;;;;;;;16.38;6.70;;;15.00;99.90;;;;;;5073935;28;20040;-94
2022/10/28 01:48:23;;;;;;;12.13;6.68;;;14.90;99.90;;;;;;5072781;28;20132;-95
2022/10/28 01:50:51;;;;;;;18.15;6.72;;;15.00;99.90;;;;;;5074023;28;20036;-95
2022/10/28 01:53:22;;;;;;;11.52;6.65;;;14.90;99.90;;;;;;5057383;28;20602;-95
2022/10/28 01:55:52;;;;;;;15.30;6.80;;;14.90;99.90;;;;;;5060769;28;20040;-94
2022/10/28 01:58:22;;;;;;;10.63;6.68;;;14.80;99.90;;;;;;5061218;28;20117;-94
2022/10/28 02:00:49;;;;;;;12.50;6.43;;;14.80;99.90;;;;;;5061218;28;20048;-94
2022/10/28 02:03:15;;;;;;;;;;;14.80;99.90;;;;;;5045099;28;20040;-94
2022/10/28 02:05:50;;;;;;;13.27;7.25;;;14.80;99.90;;;;;;5078058;28;20388;-94
2022/10/28 02:08:42;;;;;;;13.73;7.53;;;14.70;99.90;;;;;;5060790;28;20481;-94
2022/10/28 02:11:27;;;;;;;14.88;6.93;;;14.70;99.90;;;;;;5060985;28;20477;-94
2022/10/28 02:14:28;;;;;;;15.38;7.30;;;14.70;99.90;;;;;;5059930;28;20485;-95
2022/10/28 02:17:03;;;;;;;13.98;7.07;;;14.60;99.90;;;;;;5061172;28;20028;-95
2022/10/28 02:20:13;;;;;;;14.63;7.13;;;14.60;99.90;;;;;;5060595;28;20044;-94
2022/10/28 02:22:42;;;;;;;16.67;8.07;;;14.60;99.90;;;;;;5051876;28;20045;-93
2022/10/28 02:25:19;;;;;;;17.17;7.45;;;14.60;99.90;;;;;;5060349;28;20052;-94
2022/10/28 02:28:01;;;;;;;14.63;7.60;;;14.60;99.90;;;;;;5075160;28;20033;-94
2022/10/28 02:30:50;;;;;;;15.40;7.10;;;14.50;99.90;;;;;;5057467;28;20041;-94
2022/10/28 02:33:24;;;;;;;13.30;7.45;;;14.50;99.90;;;;;;5045152;28;20515;-93
2022/10/28 02:36:11;;;;;;;15.75;7.65;;;14.40;99.90;;;;;;5061714;28;20498;-94
2022/10/28 02:38:42;;;;;;;16.40;8.70;;;14.40;99.90;;;;;;5060774;28;20163;-93
2022/10/28 02:41:21;;;;;;;18.88;9.00;;;14.40;99.90;;;;;;5051291;28;20541;-95
2022/10/28 02:43:51;;;;;;;20.85;8.40;;;14.40;99.90;;;;;;5077408;28;20068;-94
2022/10/28 02:46:18;;;;;;;17.08;8.18;;;14.30;99.90;;;;;;5061074;28;20072;-94
2022/10/28 02:48:57;;;;;;;19.55;8.82;;;14.30;99.90;;;;;;5060542;28;20058;-95
2022/10/28 02:51:34;;;;;;;17.35;8.30;;;14.30;99.90;;;;;;5041912;28;20041;-94
2022/10/28 02:54:06;;;;;;;17.98;8.52;;;14.30;99.90;;;;;;5056242;28;20032;-95
2022/10/28 02:56:58;;;;;;;15.65;8.70;;;14.30;99.90;;;;;;5060019;28;20098;-94
2022/10/28 02:59:24;;;;;;;16.85;9.15;;;14.20;99.90;;;;;;5069076;28;20508;-94
2022/10/28 03:01:50;;;;;;;;;;;14.20;99.90;;;;;;5043540;28;20041;-95
2022/10/28 03:04:16;;;;;;;15.50;8.48;;;14.20;99.90;;;;;;5060333;28;19925;-93
2022/10/28 03:06:41;;;;;;;13.60;8.77;;;14.20;99.90;;;;;;5058909;28;20044;-95
2022/10/28 03:09:07;;;;;;;18.27;8.50;;;14.20;99.90;;;;;;5060518;28;20071;-94
2022/10/28 03:11:33;;;;;;;17.98;9.63;;;14.10;99.90;;;;;;5027240;28;20029;-93
2022/10/28 03:13:59;;;;;;;18.10;9.07;;;14.10;99.90;;;;;;5043573;28;20044;-94
2022/10/28 03:16:28;;;;;;;20.05;9.55;;;14.10;99.90;;;;;;5026466;28;20403;-95
2022/10/28 03:18:54;;;;;;;19.35;9.32;;;14.00;99.90;;;;;;5027708;28;20040;-94
2022/10/28 03:21:19;;;;;;;17.75;9.20;;;14.00;99.90;;;;;;5042960;28;20045;-94
2022/10/28 03:23:45;;;;;;;15.98;9.57;;;14.00;99.90;;;;;;5042789;28;20037;-93
2022/10/28 03:26:11;;;;;;;19.70;9.32;;;14.00;99.90;;;;;;5025851;28;20036;-94
2022/10/28 03:28:36;;;;;;;20.90;10.02;;;14.00;99.90;;;;;;5075726;28;20031;-93
2022/10/28 03:31:02;;;;;;;20.70;10.30;;;13.90;99.90;;;;;;5059806;28;20492;-93
2022/10/28 03:33:28;;;;;;;16.95;9.23;;;13.90;99.90;;;;;;5059666;28;20032;-93
2022/10/28 03:35:54;;;;;;;16.27;9.95;;;14.00;99.90;;;;;;5042516;28;20120;-94
2022/10/28 03:38:19;;;;;;;20.48;11.15;;;13.90;99.90;;;;;;5043923;28;20045;-94
2022/10/28 03:40:49;;;;;;;18.98;11.23;;;14.00;99.90;;;;;;5023403;28;20040;-94
2022/10/28 03:43:16;;;;;;;20.65;11.48;;;13.90;99.90;;;;;;5058792;28;20044;-94
2022/10/28 03:45:42;;;;;;;21.67;11.57;;;13.90;99.90;;;;;;5059621;28;20032;-93
2022/10/28 03:48:07;;;;;;;21.92;11.18;;;13.90;99.90;;;;;;5023523;28;20047;-94
2022/10/28 03:50:33;;;;;;;23.50;12.07;;;13.90;99.90;;;;;;5051850;28;20041;-94
2022/10/28 03:52:59;;;;;;;19.52;11.68;;;13.90;99.90;;;;;;5036962;28;20142;-94
2022/10/28 03:55:26;;;;;;;22.88;11.13;;;13.90;99.90;;;;;;5043115;28;20043;-94
2022/10/28 03:57:52;;;;;;;23.52;12.27;;;13.90;99.90;;;;;;5043175;28;20033;-93
2022/10/28 04:00:18;;;;;;;23.35;11.15;;;13.90;99.90;;;;;;5043152;28;20515;-96
2022/10/28 04:02:50;;;;;;;22.88;12.05;;;13.90;99.90;;;;;;5059951;28;20033;-95
2022/10/28 04:05:17;;;;;;;22.50;11.90;;;13.90;99.90;;;;;;5043004;28;20048;-94
2022/10/28 04:07:43;;;;;;;25.30;11.82;;;13.80;99.90;;;;;;5043106;28;20131;-92
2022/10/28 04:10:09;;;;;;;19.88;11.50;;;13.90;99.90;;;;;;5042284;28;20134;-94
2022/10/28 04:12:35;;;;;;;;;;;13.90;99.90;;;;;;5056355;28;20032;-96
2022/10/28 04:15:01;;;;;;;23.85;11.85;;;13.90;99.90;;;;;;5078575;28;20391;-96
2022/10/28 04:17:26;;;;;;;26.73;11.23;;;13.80;99.90;;;;;;5054801;28;20040;-95
2022/10/28 04:19:52;;;;;;;30.73;12.53;;;13.80;99.90;;;;;;5054812;28;20083;-95
2022/10/28 04:22:18;;;;;;;25.05;12.30;;;13.80;99.90;;;;;;5026531;28;20275;-96
2022/10/28 04:24:43;;;;;;;23.60;11.25;;;13.80;99.90;;;;;;5022084;28;20108;-89
2022/10/28 04:27:09;;;;;;;22.23;11.70;;;13.80;99.90;;;;;;5055122;28;20076;-91
2022/10/28 04:29:35;;;;;;;22.17;12.23;;;13.80;99.90;;;;;;5022599;28;20085;-90
2022/10/28 04:32:01;;;;;;;29.40;12.85;;;13.80;99.90;;;;;;5071227;28;20764;-88
2022/10/28 04:34:27;;;;;;;24.88;12.13;;;13.80;99.90;;;;;;5071990;28;20042;-89
2022/10/28 04:36:52;;;;;;;27.90;13.10;;;13.70;99.90;;;;;;5072399;28;20029;-90
2022/10/28 04:39:18;;;;;;;22.73;12.07;;;13.70;99.90;;;;;;5054564;28;20037;-91
2022/10/28 04:41:44;;;;;;;31.77;12.77;;;13.70;99.90;;;;;;5023208;28;20047;-87
2022/10/28 04:44:09;;;;;;;26.30;11.95;;;13.70;99.90;;;;;;5054395;28;20074;-87
2022/10/28 04:46:35;;;;;;;28.48;12.75;;;13.60;99.90;;;;;;5037757;28;20071;-87
2022/10/28 04:49:01;;;;;;;24.67;12.30;;;13.60;99.90;;;;;;5038090;28;20036;-86
2022/10/28 04:51:27;;;;;;;25.77;11.82;;;13.60;99.90;;;;;;5058289;28;20044;-95
2022/10/28 04:53:53;;;;;;;24.90;12.52;;;13.60;99.90;;;;;;5042986;28;20048;-95
2022/10/28 04:56:19;;;;;;;;;;;13.60;99.90;;;;;;5060493;28;20076;-96
2022/10/28 04:58:47;;;;;;;24.83;12.00;;;13.60;99.90;;;;;;5059564;28;19923;-96
2022/10/28 05:01:13;;;;;;;25.05;11.27;;;13.60;99.90;;;;;;5042918;28;20041;-96
2022/10/28 05:03:38;;;;;;;26.95;12.13;;;13.60;99.90;;;;;;5076765;28;20047;-96
2022/10/28 05:06:04;;;;;;;23.35;12.02;;;13.60;99.90;;;;;;5044085;28;20041;-96
2022/10/28 05:08:30;;;;;;;24.13;12.00;;;13.60;99.90;;;;;;5060409;28;20088;-96
2022/10/28 05:10:56;;;;;;;24.92;12.35;;;13.60;99.90;;;;;;5044365;28;20036;-96
2022/10/28 05:13:21;;;;;;;26.70;11.98;;;13.60;99.90;;;;;;5043432;28;20218;-96
2022/10/28 05:15:48;;;;;;;23.15;12.60;;;13.60;99.90;;;;;;5058514;28;20130;-95
2022/10/28 05:18:14;;;;;;;29.58;12.77;;;13.70;99.90;;;;;;5060415;28;20079;-96
2022/10/28 05:20:40;;;;;;;22.77;12.05;;;13.70;99.90;;;;;;5042944;28;20043;-96
2022/10/28 05:23:06;;;;;;;25.48;11.50;;;13.70;99.90;;;;;;5060552;28;20052;-96
2022/10/28 05:25:31;;;;;;;25.25;11.77;;;13.70;99.90;;;;;;5059951;28;20040;-96
2022/10/28 05:28:01;;;;;;;23.63;11.20;;;13.70;99.90;;;;;;5060287;28;20076;-96
2022/10/28 05:30:27;;;;;;;23.80;10.45;;;13.70;99.90;;;;;;5044478;28;20037;-95
2022/10/28 05:33:01;;;;;;;22.50;10.77;;;14.30;99.90;;;;;;5060302;28;20128;-96
2022/10/28 05:35:27;;;;;;;20.88;10.93;;;13.70;99.90;;;;;;5060724;28;20032;-96
2022/10/28 05:37:53;;;;;;;;;;;13.70;99.90;;;;;;5060658;28;20041;-95
2022/10/28 05:40:18;;;;;;;22.15;10.98;;;13.80;99.90;;;;;;5061375;28;19984;-96
2022/10/28 05:42:44;;;;;;;22.55;10.55;;;13.80;99.90;;;;;;5045370;28;20048;-96
2022/10/28 05:45:11;;;;;;;19.15;10.93;;;13.70;99.90;;;;;;5044680;28;20112;-96
2022/10/28 05:47:47;;;;;;;22.23;11.55;;;13.70;99.90;;;;;;5061166;28;20044;-96
2022/10/28 05:50:16;;;;;;;19.53;10.87;;;13.70;99.90;;;;;;5063600;28;20087;-94
2022/10/28 05:52:50;;;;;;;22.52;11.35;;;13.70;99.90;;;;;;5062974;28;20135;-96
2022/10/28 05:55:20;;;;;;;20.88;11.32;;;13.70;99.90;;;;;;5067242;28;20070;-96
2022/10/28 05:57:50;;;;;;;23.35;11.25;;;13.70;99.90;;;;;;5049739;28;20045;-96
2022/10/28 06:00:18;;;;;;;26.52;11.80;;;13.20;99.90;;;;;;5063764;28;20040;-96
2022/10/28 06:02:44;;;;;;;22.25;11.15;;;13.70;99.90;;;;;;5065288;28;20040;-96
2022/10/28 06:05:13;;;;;;;24.30;11.13;;;13.70;99.90;;;;;;5069815;28;20044;-96
2022/10/28 06:07:40;;;;;;;21.98;10.93;;;13.70;99.90;;;;;;5069906;28;20048;-96
2022/10/28 06:10:08;;;;;;;20.27;10.32;;;13.80;99.90;;;;;;5067580;28;20025;-96
2022/10/28 06:12:34;;;;;;;24.70;10.70;;;13.60;99.90;;;;;;5087504;28;20107;-96
2022/10/28 06:15:00;;;;;;;23.20;10.95;;;13.70;99.90;;;;;;5072994;28;20048;-96
2022/10/28 06:17:26;;;;;;;19.38;10.68;;;13.60;99.90;;;;;;5071921;28;20491;-96
2022/10/28 06:19:55;;;;;;;28.52;10.35;;;13.70;99.90;;;;;;5073390;28;20143;-96
2022/10/28 06:22:22;;;;;;;21.65;9.98;;;13.60;99.90;;;;;;5072735;28;20063;-96
2022/10/28 06:24:47;;;;;;;21.42;11.13;;;13.70;99.90;;;;;;5070009;28;20123;-95
2022/10/28 06:27:16;;;;;;;22.13;10.02;;;13.60;99.90;;;;;;5080732;28;20079;-96
2022/10/28 06:29:42;;;;;;;23.05;10.60;;;13.60;99.90;;;;;;5064722;28;20036;-96
2022/10/28 06:32:11;;;;;;;19.67;10.10;;;13.50;99.90;;;;;;5066113;28;20052;-96
2022/10/28 06:34:38;;;;;;;19.38;9.80;;;13.60;99.90;;;;;;5067709;28;20044;-96
2022/10/28 06:37:05;;;;;;;18.50;10.23;;;13.60;99.90;;;;;;5067836;28;20047;-96
2022/10/28 06:39:32;;;;;;;19.70;11.05;;;13.60;99.90;;;;;;5057851;28;20485;-85
2022/10/28 06:41:57;;;;;;;19.42;10.10;;;13.70;99.90;;;;;;5071313;28;20044;-87
2022/10/28 06:44:23;;;;;;;21.80;9.95;;;13.70;99.90;;;;;;5023281;28;20029;-84
2022/10/28 06:46:49;;;;;;;18.03;9.43;;;13.70;99.90;;;;;;5039632;28;20068;-84
2022/10/28 06:49:14;;;;;;;27.10;10.87;;;13.70;99.90;;;;;;5073178;28;20275;-84
2022/10/28 06:51:40;;;;;;;16.65;8.82;;;13.70;99.90;;;;;;5056862;28;20106;-86
2022/10/28 06:54:06;;;;;;;21.50;10.35;;;13.70;99.90;;;;;;5073454;28;20044;-86
2022/10/28 06:56:31;;;;;;;21.10;10.13;;;13.80;99.90;;;;;;5073582;28;20064;-84
2022/10/28 06:58:57;;;;;;;18.40;10.63;;;13.80;99.90;;;;;;5039899;28;20097;-84
2022/10/28 07:01:23;;;;;;;20.58;9.77;;;13.80;99.90;;;;;;5039137;28;20717;-79
2022/10/28 07:03:48;;;;;;;19.08;9.23;;;13.90;99.90;;;;;;5039193;28;20060;-78
2022/10/28 07:06:17;;;;;;;19.80;9.55;;;13.90;99.90;;;;;;5054634;28;20036;-78
2022/10/28 07:08:43;;;;;;;23.10;10.13;;;13.90;99.90;;;;;;5055497;28;20036;-78
2022/10/28 07:11:09;;;;;;;17.75;9.50;;;14.00;99.90;;;;;;5055261;28;20055;-78
2022/10/28 07:13:34;;;;;;;18.95;9.60;;;14.10;99.90;;;;;;5072127;28;20052;-79
2022/10/28 07:16:00;;;;;;;20.30;9.23;;;14.20;99.90;;;;;;5039565;28;20044;-78
2022/10/28 07:18:29;;;;;;;21.50;9.48;;;14.20;99.90;;;;;;5071939;28;20047;-79
2022/10/28 07:20:59;;;;;;;19.63;9.57;;;14.30;99.90;;;;;;5055725;28;20133;-78
2022/10/28 07:23:25;;;;;;;23.35;9.18;;;14.40;99.90;;;;;;5069639;28;20233;-79
2022/10/28 07:25:55;;;;;;;21.73;9.18;;;14.50;99.90;;;;;;5072221;28;20401;-79
2022/10/28 07:28:22;;;;;;;13.32;8.45;;;14.60;99.90;;;;;;5071801;28;20048;-79
2022/10/28 07:30:47;;;;;;;18.73;7.97;;;14.80;99.90;;;;;;5055405;28;20411;-79
2022/10/28 07:33:13;;;;;;;17.08;7.85;;;14.90;99.90;;;;;;5054483;28;20036;-79
2022/10/28 07:35:40;;;;;;;20.92;7.97;;;15.20;99.90;;;;;;5055429;28;20032;-79
2022/10/28 07:38:05;;;;;;;13.15;7.47;;;15.40;99.90;;;;;;5055553;28;20477;-79
2022/10/28 07:40:31;;;;;;;21.10;7.47;;;15.70;99.90;;;;;;5038055;28;20075;-79
2022/10/28 07:42:57;;;;;;;13.00;6.65;;;16.00;99.90;;;;;;5071906;28;20101;-79
2022/10/28 07:45:23;;;;;;;14.10;7.15;;;16.40;99.90;;;;;;5070914;28;20119;-79
2022/10/28 07:47:48;;;;;;;15.45;6.57;;;16.70;99.90;;;;;;5054971;28;20124;-80
2022/10/28 07:50:14;;;;;;;14.23;6.63;;;17.00;99.90;;;;;;5054544;28;20056;-81
2022/10/28 07:52:40;;;;;;;12.82;6.65;;;17.30;99.90;;;;;;5037651;28;20123;-80
2022/10/28 07:55:06;;;;;;;12.52;6.10;;;17.60;99.90;;;;;;5055078;28;20444;-80
2022/10/28 07:57:35;;;;;;;12.27;6.57;;;17.80;99.90;;;;;;5071034;28;20039;-80
2022/10/28 08:00:02;;;;;;;13.68;5.80;;;18.10;99.90;;;;;;5054932;28;20497;-79
2022/10/28 08:02:27;;;;;;;11.43;5.78;;;18.50;99.90;;;;;;5070862;28;20587;-79
2022/10/28 08:04:53;;;;;;;15.90;6.35;;;18.60;99.90;;;;;;5037786;28;20043;-79
2022/10/28 08:07:19;;;;;;;13.77;6.05;;;18.80;99.90;;;;;;5053480;28;20473;-81
2022/10/28 08:09:45;;;;;;;;;;;19.00;99.90;;;;;;5038232;28;20130;-86
2022/10/28 08:12:51;;;;;;;15.25;6.18;;;19.00;99.90;;;;;;5052650;28;19962;-82
2022/10/28 08:15:17;;;;;;;13.27;5.55;;;19.20;99.90;;;;;;5047318;28;20090;-82
2022/10/28 08:17:43;;;;;;;;;;;19.50;99.90;;;;;;5054256;28;20047;-82
2022/10/28 08:20:10;;;;;;;13.43;5.55;;;19.60;99.90;;;;;;5051845;28;19916;-82
2022/10/28 08:22:36;;;;;;;11.98;5.72;;;19.90;99.90;;;;;;5053004;28;20042;-84
2022/10/28 08:25:02;;;;;;;11.73;5.20;;;20.00;99.90;;;;;;5033267;28;20045;-81
2022/10/28 08:27:27;;;;;;;11.07;5.80;;;20.00;99.90;;;;;;5051564;28;20047;-81
2022/10/28 08:30:05;;;;;;;11.05;5.30;;;20.00;99.90;;;;;;5036353;28;20036;-79
2022/10/28 08:32:31;;;;;;;10.95;4.97;;;20.10;99.90;;;;;;5052989;28;20492;-79
2022/10/28 08:34:56;;;;;;;12.32;4.93;;;20.20;99.90;;;;;;5053349;28;20093;-79
2022/10/28 08:37:22;;;;;;;9.10;4.85;;;20.60;99.90;;;;;;5050481;28;20039;-79
2022/10/28 08:39:48;;;;;;;12.43;5.30;;;21.20;99.90;;;;;;5019694;28;20553;-79
2022/10/28 08:42:22;;;;;;;12.23;4.53;;;21.80;99.90;;;;;;5035960;28;20041;-79
2022/10/28 08:44:52;;;;;;;10.38;4.60;;;22.30;99.90;;;;;;5052661;28;20044;-78
2022/10/28 08:47:32;;;;;;;10.95;4.82;;;22.30;99.90;;;;;;5049940;28;20068;-76
2022/10/28 08:50:09;;;;;;;10.57;4.80;;;22.30;99.90;;;;;;5051214;28;20056;-78
2022/10/28 08:52:53;;;;;;;12.60;5.07;;;22.20;99.90;;;;;;5052752;28;20037;-80
2022/10/28 08:55:36;;;;;;;10.38;4.60;;;22.20;99.90;;;;;;5067700;28;20028;-78
2022/10/28 08:58:20;;;;;;;11.00;5.20;;;22.20;99.90;;;;;;5049556;28;20186;-80
2022/10/28 09:00:53;;;;;;;10.68;5.05;;;22.10;99.90;;;;;;5052574;28;20035;-81
2022/10/28 09:03:38;;;;;;;11.13;4.32;;;21.90;99.90;;;;;;5067478;28;20040;-80
2022/10/28 09:06:06;;;;;;;12.90;5.47;;;21.60;99.90;;;;;;5069435;28;20531;-80
2022/10/28 09:08:45;;;;;;;11.40;4.47;;;21.20;99.90;;;;;;5052712;28;20056;-80
2022/10/28 09:11:35;;;;;;;13.25;5.38;;;20.80;99.90;;;;;;5070583;28;20040;-80
2022/10/28 09:14:10;;;;;;;10.25;4.68;;;20.50;99.90;;;;;;5052218;28;20041;-80
2022/10/28 09:16:46;;;;;;;12.00;5.55;;;20.20;99.90;;;;;;5069680;28;20036;-80
2022/10/28 09:19:22;;;;;;;12.73;4.93;;;20.00;99.90;;;;;;5070196;28;20052;-80
2022/10/28 09:21:55;;;;;;;9.47;4.43;;;19.90;99.90;;;;;;5053506;28;20124;-80
2022/10/28 09:24:47;;;;;;;10.18;4.45;;;19.70;99.90;;;;;;5069906;28;20500;-80
2022/10/28 09:27:27;;;;;;;11.77;4.50;;;19.60;99.90;;;;;;5053283;28;20050;-80
2022/10/28 09:30:25;;;;;;;9.25;4.53;;;19.50;99.90;;;;;;5051858;28;20071;-80
2022/10/28 09:32:50;;;;;;;12.30;4.95;;;19.40;99.90;;;;;;5051786;28;20029;-80
2022/10/28 09:35:22;;;;;;;10.57;4.40;;;19.40;99.90;;;;;;5053374;28;20033;-80
2022/10/28 09:37:54;;;;;;;9.20;4.35;;;19.30;99.90;;;;;;5060439;28;20040;-80
2022/10/28 09:40:24;;;;;;;10.85;4.82;;;19.30;99.90;;;;;;5052830;28;20037;-80
2022/10/28 09:43:07;;;;;;;10.70;4.60;;;19.20;99.90;;;;;;5069936;28;20432;-80
2022/10/28 09:45:36;;;;;;;11.55;3.95;;;19.30;99.90;;;;;;5069770;28;20553;-80
2022/10/28 09:48:20;;;;;;;13.80;4.28;;;19.20;99.90;;;;;;5052865;28;20102;-80
2022/10/28 09:50:49;;;;;;;7.70;3.80;;;19.10;99.90;;;;;;5051039;28;20115;-80
2022/10/28 09:53:46;;;;;;;11.68;4.30;;;19.00;99.90;;;;;;5069771;28;20369;-80
2022/10/28 09:56:14;;;;;;;9.48;4.50;;;19.00;99.90;;;;;;5068964;28;20041;-80
2022/10/28 09:58:46;;;;;;;11.95;4.78;;;19.00;99.90;;;;;;5052860;28;20569;-80
2022/10/28 10:01:12;;;;;;;11.35;4.43;;;19.00;99.90;;;;;;5052759;28;20032;-80
2022/10/28 10:03:42;;;;;;;11.18;4.72;;;19.00;99.90;;;;;;5053275;28;20056;-90
2022/10/28 10:06:14;;;;;;;10.88;3.60;;;19.10;99.90;;;;;;5036953;28;20036;-89
2022/10/28 10:08:40;;;;;;;12.63;4.45;;;19.10;99.90;;;;;;5069444;28;20131;-89
2022/10/28 10:11:26;;;;;;;11.80;4.70;;;19.10;99.90;;;;;;5053687;28;20448;-90
2022/10/28 10:13:53;;;;;;;13.25;4.07;;;19.20;99.90;;;;;;5052493;28;20086;-90
2022/10/28 10:16:32;;;;;;;16.13;4.40;;;19.20;99.90;;;;;;5056520;28;20048;-90
2022/10/28 10:19:01;;;;;;;12.45;4.15;;;19.20;99.90;;;;;;5057730;28;20045;-90
2022/10/28 10:21:45;;;;;;;10.75;4.20;;;19.50;99.90;;;;;;5064631;28;20157;-90
2022/10/28 10:24:24;;;;;;;9.10;4.05;;;19.60;99.90;;;;;;5056084;28;20040;-90
2022/10/28 10:26:51;;;;;;;10.30;4.38;;;19.70;99.90;;;;;;5057666;28;20039;-89
2022/10/28 10:29:18;;;;;;;12.32;4.18;;;19.70;99.90;;;;;;5040940;28;20480;-89
2022/10/28 10:31:44;;;;;;;10.30;3.67;;;19.70;99.90;;;;;;5073794;28;20032;-90
2022/10/28 10:34:25;;;;;;;11.90;3.85;;;19.70;99.90;;;;;;5057487;28;20040;-89
2022/10/28 10:36:55;;;;;;;14.30;4.25;;;19.70;99.90;;;;;;5055496;28;20075;-90
2022/10/28 10:39:25;;;;;;;12.63;4.75;;;19.70;99.90;;;;;;5057152;28;20077;-90
2022/10/28 10:41:54;;;;;;;11.52;4.38;;;19.70;99.90;;;;;;5071790;28;20032;-90
2022/10/28 10:44:19;;;;;;;13.88;4.88;;;19.80;99.90;;;;;;5055695;28;20044;-90
2022/10/28 10:47:03;;;;;;;10.55;4.90;;;20.00;99.90;;;;;;5055518;28;20028;-89
2022/10/28 10:49:29;;;;;;;13.70;4.70;;;20.30;99.90;;;;;;5052111;28;20052;-89
2022/10/28 10:51:57;;;;;;;13.50;4.40;;;20.90;99.90;;;;;;5059719;28;20033;-90
2022/10/28 10:54:25;;;;;;;10.48;4.38;;;21.30;99.90;;;;;;5055083;28;20119;-89
2022/10/28 10:56:51;;;;;;;12.82;4.70;;;21.20;99.90;;;;;;5055691;28;20089;-89
2022/10/28 10:59:27;;;;;;;10.32;4.22;;;21.10;99.90;;;;;;5039193;28;20040;-89
2022/10/28 11:01:54;;;;;;;;;;;21.10;99.90;;;;;;5074535;28;20146;-89
2022/10/28 11:04:23;;;;;;;10.05;3.90;;;21.10;99.90;;;;;;5068150;28;19911;-89
2022/10/28 11:06:54;;;;;;;12.45;4.75;;;21.00;99.90;;;;;;5073593;28;20047;-89
2022/10/28 11:09:38;;;;;;;12.07;4.85;;;20.90;99.90;;;;;;5073992;28;20106;-89
2022/10/28 11:12:30;;;;;;;13.30;4.47;;;20.80;99.90;;;;;;5089803;28;20041;-88
2022/10/28 11:15:14;;;;;;;9.23;4.40;;;20.80;99.90;;;;;;5068774;28;20033;-89
2022/10/28 11:17:52;;;;;;;9.10;3.97;;;20.90;99.90;;;;;;5064233;28;20044;-87
2022/10/28 11:20:24;;;;;;;13.27;4.50;;;21.40;99.90;;;;;;5055168;28;20075;-87
2022/10/28 11:23:23;;;;;;;10.18;3.72;;;21.70;99.90;;;;;;5077341;28;20119;-88
2022/10/28 11:25:53;;;;;;;8.85;4.35;;;21.80;99.90;;;;;;5067630;28;20043;-88
2022/10/28 11:28:41;;;;;;;12.65;3.92;;;21.70;99.90;;;;;;5079708;28;20096;-88
2022/10/28 11:32:06;;;;;;;10.40;4.32;;;22.00;99.90;;;;;;5071600;28;20555;-88
2022/10/28 11:35:13;;;;;;;13.68;4.32;;;22.70;99.90;;;;;;5046286;28;20369;-88
2022/10/28 11:38:04;;;;;;;11.98;4.07;;;23.30;99.90;;;;;;5060487;28;20051;-88
2022/10/28 11:40:45;;;;;;;10.75;4.30;;;23.80;99.90;;;;;;5053332;28;20036;-87
2022/10/28 11:43:21;;;;;;;10.38;4.15;;;23.90;99.90;;;;;;5056227;28;20115;-87
2022/10/28 11:46:06;;;;;;;12.85;4.00;;;24.00;99.90;;;;;;5055735;28;20487;-87
2022/10/28 11:49:24;;;;;;;10.45;4.22;;;23.80;99.90;;;;;;5064259;28;20043;-87
2022/10/28 11:52:02;;;;;;;10.32;4.35;;;24.00;99.90;;;;;;5054034;28;20439;-87
2022/10/28 11:54:57;;;;;;;10.57;3.83;;;23.90;99.90;;;;;;5055277;28;20063;-88
2022/10/28 11:57:34;;;;;;;10.20;3.60;;;24.00;99.90;;;;;;5070010;28;20563;-88
2022/10/28 12:00:08;;;;;;;10.60;3.90;;;24.30;99.90;;;;;;5053028;28;20484;-88
2022/10/28 12:02:40;;;;;;;14.05;4.10;;;24.60;99.90;;;;;;5055193;28;20545;-87
2022/10/28 12:05:30;;;;;;;8.00;3.63;;;24.40;99.90;;;;;;5055027;28;20071;-88
2022/10/28 12:08:23;;;;;;;8.52;3.60;;;24.40;99.90;;;;;;5053729;28;20125;-86
2022/10/28 12:10:54;;;;;;;9.63;3.75;;;24.50;99.90;;;;;;5072179;28;20044;-84
2022/10/28 12:13:45;;;;;;;13.05;3.83;;;24.10;99.90;;;;;;5071894;28;20039;-87
2022/10/28 12:16:21;;;;;;;12.50;4.07;;;23.80;99.90;;;;;;5051241;28;20499;-85
2022/10/28 12:18:53;;;;;;;9.50;3.40;;;23.50;99.90;;;;;;5073026;28;20464;-88
2022/10/28 12:21:33;;;;;;;9.93;3.67;;;23.30;99.90;;;;;;5056591;28;20274;-89
2022/10/28 12:23:59;;;;;;;12.85;4.10;;;23.00;99.90;;;;;;5056256;28;20044;-87
2022/10/28 12:26:42;;;;;;;10.77;3.85;;;22.80;99.90;;;;;;5039382;28;20143;-87
2022/10/28 12:29:19;;;;;;;12.00;3.80;;;22.70;99.90;;;;;;5053213;28;20052;-87
2022/10/28 12:31:51;;;;;;;10.60;3.80;;;22.50;99.90;;;;;;5049737;28;20047;-87
2022/10/28 12:34:24;;;;;;;17.52;3.85;;;22.30;99.90;;;;;;5066037;28;20366;-80
2022/10/28 12:37:07;;;;;;;13.82;4.20;;;22.20;99.90;;;;;;5072045;28;20040;-90
2022/10/28 12:39:39;;;;;;;10.05;4.20;;;22.00;99.90;;;;;;5055097;28;20126;-88
2022/10/28 12:42:27;;;;;;;10.07;4.75;;;21.90;99.90;;;;;;5055617;28;20045;-89
2022/10/28 12:44:57;;;;;;;10.40;4.10;;;21.80;99.90;;;;;;5055140;28;20069;-89
2022/10/28 12:47:32;;;;;;;11.05;3.90;;;21.70;99.90;;;;;;5055744;28;20045;-90
2022/10/28 12:50:06;;;;;;;11.63;4.00;;;21.70;99.90;;;;;;5055934;28;20090;-90
2022/10/28 12:52:35;;;;;;;10.85;4.25;;;21.60;99.90;;;;;;5049209;28;20043;-89
2022/10/28 12:55:12;;;;;;;11.73;4.32;;;21.60;99.90;;;;;;5055000;28;20041;-85
2022/10/28 12:57:41;;;;;;;12.80;4.40;;;21.50;99.90;;;;;;5068388;28;20043;-86
2022/10/28 13:00:27;;;;;;;10.63;4.30;;;21.50;99.90;;;;;;5070873;28;20040;-88
2022/10/28 13:02:59;;;;;;;10.30;3.88;;;21.40;99.90;;;;;;5068399;28;20040;-87